Time;durP1;ratioP1;P1;durP2;ratioP2;P2;SDS_P1;SDS_P2;PMS_P1;PMS_P2;Temp;Humidity;BMP_temperature;BMP_pressure;BME280_temperature;BME280_humidity;BME280_pressure;Samples;Min_cycle;Max_cycle;Signal;HPM_P1;HPM_P2
2023/06/18 00:01:43;;;;;;;11.80;7.37;;;18.50;99.90;;;;;;5061917;28;20112;-71
2023/06/18 00:04:08;;;;;;;17.97;7.63;;;18.50;99.90;;;;;;5065573;28;20078;-72
2023/06/18 00:06:34;;;;;;;13.07;8.03;;;18.40;99.90;;;;;;5059269;28;20095;-71
2023/06/18 00:09:00;;;;;;;9.97;7.17;;;18.30;99.90;;;;;;5056279;28;20024;-71
2023/06/18 00:11:25;;;;;;;8.27;6.87;;;18.40;99.90;;;;;;5054594;28;20392;-72
2023/06/18 00:13:51;;;;;;;11.10;7.73;;;18.40;99.90;;;;;;5061951;28;20456;-71
2023/06/18 00:16:17;;;;;;;10.13;6.87;;;18.30;99.90;;;;;;5063393;28;20029;-72
2023/06/18 00:18:42;;;;;;;18.33;7.80;;;18.20;99.90;;;;;;5036226;28;20053;-72
2023/06/18 00:21:10;;;;;;;7.97;7.03;;;18.20;99.90;;;;;;5064526;28;20025;-72
2023/06/18 00:23:36;;;;;;;13.68;7.30;;;18.30;99.90;;;;;;5063907;28;20391;-70
2023/06/18 00:26:02;;;;;;;12.52;7.88;;;18.30;99.90;;;;;;5054462;28;20075;-72
2023/06/18 00:28:28;;;;;;;13.00;7.07;;;18.30;99.90;;;;;;5054937;28;20025;-71
2023/06/18 00:30:54;;;;;;;13.65;7.95;;;18.20;99.90;;;;;;5063762;28;20025;-71
2023/06/18 00:33:20;;;;;;;13.48;8.40;;;18.20;99.90;;;;;;5057932;28;20033;-72
2023/06/18 00:35:46;;;;;;;10.13;7.60;;;18.40;99.90;;;;;;5056736;28;20496;-71
2023/06/18 00:38:15;;;;;;;13.90;7.80;;;18.50;99.90;;;;;;5041617;28;20086;-72
2023/06/18 00:40:41;;;;;;;12.43;8.45;;;18.40;99.90;;;;;;5062168;28;20036;-72
2023/06/18 00:43:06;;;;;;;10.83;7.83;;;18.40;99.90;;;;;;5064407;28;20033;-71
2023/06/18 00:45:32;;;;;;;12.27;8.60;;;18.20;99.90;;;;;;5061493;28;20480;-72
2023/06/18 00:47:58;;;;;;;11.23;7.03;;;18.10;99.90;;;;;;5044840;28;20036;-73
2023/06/18 00:50:26;;;;;;;9.27;7.30;;;18.10;99.90;;;;;;5061562;28;20615;-71
2023/06/18 00:52:59;;;;;;;13.23;7.88;;;18.10;99.90;;;;;;5066058;28;20182;-71
2023/06/18 00:55:26;;;;;;;13.25;7.97;;;18.20;99.90;;;;;;5060703;28;20547;-72
2023/06/18 00:57:59;;;;;;;11.10;8.20;;;18.00;99.90;;;;;;5062632;28;20382;-69
2023/06/18 01:00:25;;;;;;;8.90;7.45;;;17.90;99.90;;;;;;5064305;28;20029;-72
2023/06/18 01:02:53;;;;;;;10.13;7.43;;;17.90;99.90;;;;;;5061347;28;20412;-69
2023/06/18 01:05:20;;;;;;;12.55;7.18;;;17.80;99.90;;;;;;5047951;28;20396;-70
2023/06/18 01:07:47;;;;;;;11.30;7.85;;;17.80;99.90;;;;;;5066959;28;20897;-72
2023/06/18 01:10:14;;;;;;;12.45;7.47;;;17.80;99.90;;;;;;5059012;28;20481;-71
2023/06/18 01:12:42;;;;;;;15.10;8.75;;;17.80;99.90;;;;;;5059615;28;20411;-72
2023/06/18 01:15:10;;;;;;;9.80;7.45;;;17.80;99.90;;;;;;5061466;28;20040;-71
2023/06/18 01:17:37;;;;;;;10.13;6.70;;;17.80;99.90;;;;;;5060798;28;20079;-71
2023/06/18 01:20:09;;;;;;;10.73;6.75;;;17.90;99.90;;;;;;5056219;28;20024;-70
2023/06/18 01:22:37;;;;;;;12.80;6.85;;;17.90;99.90;;;;;;5061999;28;20028;-72
2023/06/18 01:25:05;;;;;;;11.73;6.63;;;18.10;99.90;;;;;;5063446;28;20025;-71
2023/06/18 01:27:36;;;;;;;17.75;7.57;;;18.10;99.90;;;;;;5060405;28;20033;-71
2023/06/18 01:30:03;;;;;;;10.85;7.07;;;18.20;99.90;;;;;;5058664;28;20033;-72
2023/06/18 01:32:28;;;;;;;10.32;6.95;;;18.10;99.90;;;;;;5059330;28;20028;-71
2023/06/18 01:34:54;;;;;;;9.27;6.10;;;18.20;99.90;;;;;;5062168;28;20532;-72
2023/06/18 01:37:20;;;;;;;21.80;7.30;;;18.20;99.90;;;;;;5059526;28;20490;-70
2023/06/18 01:40:18;;;;;;;13.18;6.68;;;18.30;99.90;;;;;;5061132;28;20033;-72
2023/06/18 01:43:01;;;;;;;8.70;6.80;;;18.30;99.90;;;;;;5034934;28;20045;-72
2023/06/18 01:45:33;;;;;;;10.65;5.88;;;18.10;99.90;;;;;;5061870;28;20041;-72
2023/06/18 01:48:03;;;;;;;10.23;6.43;;;18.30;99.90;;;;;;5061240;28;20025;-72
2023/06/18 01:50:32;;;;;;;9.70;7.15;;;18.20;99.90;;;;;;5050495;28;20021;-72
2023/06/18 01:52:59;;;;;;;10.38;6.43;;;18.30;99.90;;;;;;5063969;28;20025;-72
2023/06/18 01:55:28;;;;;;;12.85;6.50;;;18.10;99.90;;;;;;5063410;28;20040;-74
2023/06/18 01:57:55;;;;;;;7.95;6.28;;;18.10;99.90;;;;;;5055949;28;20025;-72
2023/06/18 02:00:21;;;;;;;10.90;6.30;;;18.20;99.90;;;;;;5063616;28;20029;-69
2023/06/18 02:02:49;;;;;;;9.97;6.97;;;18.40;99.90;;;;;;5066343;28;20021;-71
2023/06/18 02:05:15;;;;;;;11.13;6.85;;;18.40;99.90;;;;;;5062026;28;20016;-70
2023/06/18 02:07:41;;;;;;;9.63;6.87;;;18.60;99.90;;;;;;5044282;28;20033;-71
2023/06/18 02:10:07;;;;;;;10.80;7.10;;;18.60;99.90;;;;;;5063782;28;20341;-70
2023/06/18 02:12:32;;;;;;;10.75;7.20;;;18.50;99.90;;;;;;5057097;28;20036;-70
2023/06/18 02:14:58;;;;;;;11.10;6.87;;;18.40;99.90;;;;;;5056556;28;20048;-70
2023/06/18 02:17:24;;;;;;;13.60;7.05;;;18.40;99.90;;;;;;5061319;28;20025;-70
2023/06/18 02:19:49;;;;;;;8.20;6.20;;;18.60;99.90;;;;;;5061430;28;20094;-70
2023/06/18 02:22:16;;;;;;;11.77;6.80;;;18.60;99.90;;;;;;5056064;28;20020;-70
2023/06/18 02:24:42;;;;;;;10.70;7.32;;;18.70;99.90;;;;;;5063078;28;20551;-71
2023/06/18 02:27:08;;;;;;;19.98;7.85;;;18.70;99.90;;;;;;5058098;28;20039;-70
2023/06/18 02:29:34;;;;;;;11.73;7.23;;;18.70;99.90;;;;;;5062705;28;20032;-70
2023/06/18 02:31:59;;;;;;;11.60;7.57;;;18.70;99.90;;;;;;5063312;28;20267;-71
2023/06/18 02:34:27;;;;;;;10.90;8.23;;;18.70;99.90;;;;;;5059285;28;20062;-68
2023/06/18 02:36:54;;;;;;;10.45;8.02;;;18.60;99.90;;;;;;5060784;28;20556;-70
2023/06/18 02:39:20;;;;;;;9.07;7.28;;;18.40;99.90;;;;;;5064119;28;21160;-70
2023/06/18 02:41:45;;;;;;;8.33;7.33;;;18.30;99.90;;;;;;5063551;28;20040;-71
2023/06/18 02:44:12;;;;;;;14.27;7.67;;;18.20;99.90;;;;;;5060861;28;20048;-69
2023/06/18 02:46:38;;;;;;;12.35;7.45;;;18.10;99.90;;;;;;5059948;28;20560;-70
2023/06/18 02:49:03;;;;;;;11.33;7.77;;;18.20;99.90;;;;;;5056982;28;20112;-71
2023/06/18 02:51:29;;;;;;;18.60;7.63;;;18.20;99.90;;;;;;5063831;28;20146;-70
2023/06/18 02:53:55;;;;;;;10.60;7.70;;;18.20;99.90;;;;;;5060147;28;20488;-71
2023/06/18 02:56:21;;;;;;;12.27;7.83;;;18.30;99.90;;;;;;5039402;28;20476;-71
2023/06/18 02:58:55;;;;;;;14.82;7.85;;;18.30;99.90;;;;;;5056916;28;20035;-72
2023/06/18 03:01:23;;;;;;;10.57;8.45;;;18.20;99.90;;;;;;5060590;28;20036;-71
2023/06/18 03:03:49;;;;;;;11.52;8.02;;;18.10;99.90;;;;;;5060399;28;20118;-69
2023/06/18 03:06:15;;;;;;;13.05;7.60;;;18.10;99.90;;;;;;5037670;28;20048;-71
2023/06/18 03:08:40;;;;;;;10.30;8.10;;;18.10;99.90;;;;;;5056864;28;20051;-71
2023/06/18 03:11:06;;;;;;;15.63;8.30;;;18.00;99.90;;;;;;5063965;28;20518;-71
2023/06/18 03:13:31;;;;;;;10.60;7.93;;;17.80;99.90;;;;;;5063053;28;20036;-71
2023/06/18 03:15:57;;;;;;;12.70;7.53;;;17.90;99.90;;;;;;5058154;28;20052;-71
2023/06/18 03:18:23;;;;;;;13.50;7.83;;;18.00;99.90;;;;;;5061172;28;20032;-71
2023/06/18 03:20:49;;;;;;;11.32;8.05;;;18.00;99.90;;;;;;5057312;28;20037;-71
2023/06/18 03:23:15;;;;;;;13.55;7.45;;;17.90;99.90;;;;;;5054088;28;20108;-69
2023/06/18 03:25:41;;;;;;;15.10;7.73;;;17.80;99.90;;;;;;5061932;28;20036;-71
2023/06/18 03:28:07;;;;;;;13.60;8.07;;;17.70;99.90;;;;;;5061188;28;20115;-71
2023/06/18 03:30:33;;;;;;;9.52;7.93;;;17.70;99.90;;;;;;5060051;28;20052;-70
2023/06/18 03:33:02;;;;;;;15.23;7.45;;;17.60;99.90;;;;;;5056385;28;20039;-70
2023/06/18 03:35:28;;;;;;;11.45;8.13;;;17.60;99.90;;;;;;5059117;28;20102;-71
2023/06/18 03:37:54;;;;;;;10.02;7.45;;;17.70;99.90;;;;;;5060108;28;20111;-71
2023/06/18 03:40:20;;;;;;;10.63;8.40;;;17.80;99.90;;;;;;5042448;28;20170;-70
2023/06/18 03:42:45;;;;;;;13.75;8.70;;;17.70;99.90;;;;;;5059440;28;20024;-70
2023/06/18 03:45:11;;;;;;;19.10;8.65;;;17.70;99.90;;;;;;5061454;28;20120;-71
2023/06/18 03:47:37;;;;;;;11.47;9.10;;;17.70;99.90;;;;;;5061611;28;20095;-70
2023/06/18 03:50:03;;;;;;;14.27;8.83;;;17.70;99.90;;;;;;5044334;28;20024;-71
2023/06/18 03:52:28;;;;;;;13.18;8.73;;;17.70;99.90;;;;;;5057162;28;20167;-71
2023/06/18 03:54:54;;;;;;;14.93;9.67;;;17.70;99.90;;;;;;5058022;28;20131;-71
2023/06/18 03:57:20;;;;;;;13.75;8.70;;;17.70;99.90;;;;;;5040406;28;20036;-70
2023/06/18 03:59:46;;;;;;;17.58;8.50;;;17.70;99.90;;;;;;5057742;28;20037;-68
2023/06/18 04:02:12;;;;;;;14.30;8.90;;;17.50;99.90;;;;;;5057752;28;20553;-68
2023/06/18 04:04:38;;;;;;;;;;;17.50;99.90;;;;;;5056007;28;20728;-69
2023/06/18 04:07:04;;;;;;;11.48;8.27;;;17.40;99.90;;;;;;5055607;28;20474;-69
2023/06/18 04:09:29;;;;;;;10.95;8.82;;;17.40;99.90;;;;;;5053773;28;20017;-70
2023/06/18 04:11:56;;;;;;;16.90;8.97;;;17.50;99.90;;;;;;5058810;28;20041;-69
2023/06/18 04:14:22;;;;;;;11.10;8.32;;;17.60;99.90;;;;;;5060930;28;20044;-70
2023/06/18 04:16:48;;;;;;;11.13;8.60;;;17.70;99.90;;;;;;5065065;28;20035;-71
2023/06/18 04:19:14;;;;;;;13.53;8.80;;;17.80;99.90;;;;;;5058432;28;20403;-71
2023/06/18 04:21:39;;;;;;;11.88;7.43;;;17.80;99.90;;;;;;5056878;28;20275;-71
2023/06/18 04:24:05;;;;;;;15.80;9.20;;;17.80;99.90;;;;;;5063492;28;20117;-70
2023/06/18 04:26:31;;;;;;;13.00;8.98;;;17.60;99.90;;;;;;5062193;28;20024;-70
2023/06/18 04:28:56;;;;;;;18.07;8.93;;;17.70;99.90;;;;;;5064748;28;20034;-71
2023/06/18 04:31:23;;;;;;;14.70;8.23;;;17.80;99.90;;;;;;5063177;28;20032;-71
2023/06/18 04:33:49;;;;;;;;;;;17.90;99.90;;;;;;5049808;28;20043;-71
2023/06/18 04:36:15;;;;;;;13.38;9.02;;;18.10;99.90;;;;;;5063956;28;20725;-70
2023/06/18 04:38:41;;;;;;;;;;;18.20;99.90;;;;;;5062635;28;20112;-69
2023/06/18 04:41:06;;;;;;;11.70;9.40;;;18.20;99.90;;;;;;5060725;28;20015;-71
2023/06/18 04:43:32;;;;;;;13.90;8.63;;;18.10;99.90;;;;;;5046577;28;20510;-72
2023/06/18 04:45:59;;;;;;;12.20;9.00;;;18.10;99.90;;;;;;5063493;28;20035;-71
2023/06/18 04:48:24;;;;;;;14.38;9.88;;;18.00;99.90;;;;;;5061608;28;20103;-71
2023/06/18 04:50:50;;;;;;;10.90;9.00;;;17.90;99.90;;;;;;5059237;28;20823;-70
2023/06/18 04:53:16;;;;;;;16.40;9.60;;;18.10;99.90;;;;;;5058515;28;20872;-70
2023/06/18 04:55:43;;;;;;;13.95;8.73;;;18.20;99.90;;;;;;5060696;28;20028;-71
2023/06/18 04:58:10;;;;;;;12.23;9.38;;;18.40;99.90;;;;;;5060822;28;20040;-72
2023/06/18 05:00:35;;;;;;;14.77;8.88;;;18.60;99.90;;;;;;5059929;28;20033;-71
2023/06/18 05:03:01;;;;;;;14.70;9.00;;;18.80;99.90;;;;;;5063691;28;20037;-70
2023/06/18 05:05:27;;;;;;;9.60;8.60;;;18.90;99.90;;;;;;5061248;28;20021;-71
2023/06/18 05:07:53;;;;;;;12.50;9.43;;;18.90;99.90;;;;;;5063220;28;20087;-71
2023/06/18 05:10:20;;;;;;;13.32;9.07;;;19.10;99.90;;;;;;5056274;28;20032;-72
2023/06/18 05:12:45;;;;;;;10.02;8.32;;;19.20;99.90;;;;;;5061139;28;20048;-72
2023/06/18 05:15:11;;;;;;;13.17;8.80;;;19.20;99.90;;;;;;5061298;28;20071;-71
2023/06/18 05:17:37;;;;;;;12.97;9.47;;;19.50;99.90;;;;;;5062621;28;20024;-70
2023/06/18 05:20:04;;;;;;;15.38;8.80;;;19.70;99.90;;;;;;5057351;28;20822;-71
2023/06/18 05:22:30;;;;;;;12.27;8.52;;;20.00;99.90;;;;;;5060570;28;20029;-71
2023/06/18 05:24:59;;;;;;;12.00;7.53;;;19.70;99.90;;;;;;5059866;28;20024;-68
2023/06/18 05:27:25;;;;;;;10.27;7.68;;;19.60;99.90;;;;;;5064445;28;20037;-71
2023/06/18 05:29:51;;;;;;;;;;;19.80;99.90;;;;;;5042531;28;20036;-71
2023/06/18 05:32:17;;;;;;;7.82;7.00;;;20.60;99.90;;;;;;5061105;28;19908;-73
2023/06/18 05:34:43;;;;;;;13.17;7.53;;;20.80;99.90;;;;;;5046222;28;20472;-72
2023/06/18 05:37:08;;;;;;;9.30;7.07;;;21.00;99.90;;;;;;5062465;28;20064;-73
2023/06/18 05:39:35;;;;;;;11.33;7.27;;;21.20;99.90;;;;;;5062020;28;20476;-71
2023/06/18 05:42:00;;;;;;;;;;;21.40;99.90;;;;;;5060783;28;20496;-73
2023/06/18 05:44:26;;;;;;;14.32;7.22;;;21.80;98.80;;;;;;5065773;28;20009;-71
2023/06/18 05:46:51;;;;;;;9.20;7.10;;;22.60;96.70;;;;;;5062528;28;20029;-67
2023/06/18 05:49:17;;;;;;;14.57;6.50;;;23.00;94.80;;;;;;5060428;28;20457;-71
2023/06/18 05:51:45;;;;;;;8.80;7.13;;;24.40;91.30;;;;;;5046989;28;20100;-71
2023/06/18 05:54:10;;;;;;;11.52;6.63;;;24.40;88.00;;;;;;5040257;28;20032;-70
2023/06/18 05:56:36;;;;;;;10.00;6.53;;;24.70;85.40;;;;;;5058885;28;20098;-68
2023/06/18 05:59:01;;;;;;;7.63;6.27;;;24.80;85.90;;;;;;5063140;28;20408;-71
2023/06/18 06:01:27;;;;;;;11.53;6.27;;;24.80;83.90;;;;;;5056231;28;20503;-71
2023/06/18 06:03:53;;;;;;;9.90;6.55;;;26.10;81.40;;;;;;5059954;28;20039;-70
2023/06/18 06:06:18;;;;;;;8.63;6.60;;;27.20;76.70;;;;;;5061071;28;20044;-69
2023/06/18 06:08:44;;;;;;;7.07;5.75;;;27.70;75.50;;;;;;5060281;28;20480;-68
2023/06/18 06:11:10;;;;;;;10.98;5.65;;;27.30;73.10;;;;;;5064844;28;20025;-70
2023/06/18 06:13:35;;;;;;;8.32;5.93;;;28.50;71.40;;;;;;5053037;28;20028;-69
2023/06/18 06:16:01;;;;;;;8.45;6.18;;;28.10;71.90;;;;;;5058677;28;20531;-68
2023/06/18 06:18:27;;;;;;;11.35;5.70;;;28.00;69.20;;;;;;5059060;28;20024;-68
2023/06/18 06:20:52;;;;;;;6.05;5.45;;;28.60;69.30;;;;;;5058079;28;20040;-67
2023/06/18 06:23:19;;;;;;;7.25;5.70;;;29.70;67.20;;;;;;5060123;28;20024;-68
2023/06/18 06:25:44;;;;;;;11.88;6.65;;;30.00;65.10;;;;;;5060300;28;20143;-68
2023/06/18 06:28:11;;;;;;;7.65;5.95;;;30.50;64.20;;;;;;5062581;28;20445;-69
2023/06/18 06:30:36;;;;;;;7.15;5.38;;;30.80;63.20;;;;;;5063512;28;20045;-70
2023/06/18 06:33:03;;;;;;;10.75;6.28;;;29.80;64.80;;;;;;5061851;28;20032;-70
2023/06/18 06:35:29;;;;;;;7.03;5.88;;;30.40;66.00;;;;;;5062426;28;20040;-70
2023/06/18 06:37:55;;;;;;;9.70;6.10;;;29.40;64.40;;;;;;5055763;28;20637;-72
2023/06/18 06:40:21;;;;;;;13.45;5.55;;;29.30;64.50;;;;;;5057505;28;20036;-69
2023/06/18 06:42:47;;;;;;;7.32;5.97;;;27.80;66.30;;;;;;5058519;28;20021;-72
2023/06/18 06:45:12;;;;;;;8.27;5.57;;;27.00;69.70;;;;;;5057096;28;20392;-71
2023/06/18 06:47:38;;;;;;;6.85;5.82;;;26.50;70.80;;;;;;5057769;28;20492;-71
2023/06/18 06:50:04;;;;;;;6.15;5.35;;;25.80;75.00;;;;;;5058163;28;20113;-71
2023/06/18 06:52:30;;;;;;;9.27;5.93;;;26.10;77.30;;;;;;5059550;28;20025;-72
2023/06/18 06:54:56;;;;;;;7.43;6.03;;;25.90;80.20;;;;;;5061303;28;20044;-71
2023/06/18 06:57:21;;;;;;;7.15;5.63;;;25.30;79.40;;;;;;5058540;28;20104;-71
2023/06/18 06:59:47;;;;;;;8.20;6.10;;;25.10;79.20;;;;;;5064387;28;20040;-71
2023/06/18 07:02:13;;;;;;;10.57;5.90;;;24.90;85.00;;;;;;5058412;28;20051;-71
2023/06/18 07:04:39;;;;;;;9.40;5.60;;;25.20;82.80;;;;;;5056341;28;20093;-70
2023/06/18 07:07:05;;;;;;;8.02;5.90;;;25.00;85.60;;;;;;5058772;28;20029;-72
2023/06/18 07:09:30;;;;;;;9.75;6.50;;;25.10;88.70;;;;;;5059570;28;20016;-71
2023/06/18 07:11:56;;;;;;;7.32;6.20;;;24.70;82.50;;;;;;5061071;28;20041;-70
2023/06/18 07:14:22;;;;;;;8.27;5.95;;;24.60;81.50;;;;;;5058273;28;20080;-71
2023/06/18 07:16:48;;;;;;;11.20;6.03;;;25.10;90.20;;;;;;5063799;28;20517;-72
2023/06/18 07:19:14;;;;;;;6.25;5.65;;;25.50;83.30;;;;;;5053812;28;20504;-72
2023/06/18 07:21:39;;;;;;;6.85;5.90;;;25.70;85.90;;;;;;5059616;28;20024;-71
2023/06/18 07:24:05;;;;;;;9.87;5.50;;;26.40;85.70;;;;;;5064819;28;20082;-69
2023/06/18 07:26:31;;;;;;;12.85;6.45;;;26.30;83.20;;;;;;5059261;28;20488;-69
2023/06/18 07:28:56;;;;;;;8.30;6.45;;;26.30;78.70;;;;;;5058756;28;20136;-68
2023/06/18 07:31:22;;;;;;;8.80;6.32;;;25.50;80.60;;;;;;5059595;28;20679;-68
2023/06/18 07:33:47;;;;;;;8.87;6.30;;;25.60;81.50;;;;;;5057973;28;20044;-69
2023/06/18 07:36:13;;;;;;;11.30;7.23;;;26.30;85.30;;;;;;5060019;28;20785;-70
2023/06/18 07:38:38;;;;;;;9.82;6.15;;;26.30;80.10;;;;;;5059545;28;20020;-69
2023/06/18 07:41:04;;;;;;;12.18;6.45;;;26.00;81.00;;;;;;5057786;28;20127;-70
2023/06/18 07:43:30;;;;;;;8.20;6.07;;;26.10;82.90;;;;;;5063205;28;20028;-70
2023/06/18 07:45:56;;;;;;;10.35;6.32;;;25.80;80.20;;;;;;5058185;28;20061;-71
2023/06/18 07:48:22;;;;;;;7.40;6.00;;;25.90;83.70;;;;;;5044688;28;20535;-70
2023/06/18 07:50:47;;;;;;;11.60;6.20;;;26.70;79.30;;;;;;5058219;28;20041;-65
2023/06/18 07:53:13;;;;;;;10.90;6.10;;;27.10;80.10;;;;;;5055135;28;20440;-65
2023/06/18 07:55:38;;;;;;;8.55;6.30;;;27.50;79.60;;;;;;5058749;28;20036;-65
2023/06/18 07:58:04;;;;;;;10.90;6.22;;;27.60;77.60;;;;;;5036477;28;20040;-64
2023/06/18 08:00:29;;;;;;;7.22;6.10;;;27.70;76.90;;;;;;5058528;28;20213;-65
2023/06/18 08:02:55;;;;;;;82.45;8.77;;;27.70;78.50;;;;;;5058598;28;20039;-64
2023/06/18 08:05:21;;;;;;;6.93;6.00;;;27.90;76.60;;;;;;5057290;28;20036;-65
2023/06/18 08:07:46;;;;;;;9.32;6.15;;;28.50;75.30;;;;;;5057846;28;20174;-71
2023/06/18 08:10:12;;;;;;;13.97;7.00;;;29.20;74.10;;;;;;5042192;28;20055;-67
2023/06/18 08:12:37;;;;;;;18.58;8.25;;;29.70;77.20;;;;;;5063624;28;20302;-68
2023/06/18 08:15:03;;;;;;;15.73;7.32;;;29.30;71.50;;;;;;5058250;28;20051;-67
2023/06/18 08:17:29;;;;;;;18.27;7.60;;;29.40;74.70;;;;;;5057928;28;20031;-65
2023/06/18 08:19:54;;;;;;;11.48;6.47;;;28.90;73.90;;;;;;5058189;28;20116;-64
2023/06/18 08:22:20;;;;;;;15.13;7.63;;;28.50;75.00;;;;;;5060689;28;20033;-65
2023/06/18 08:24:46;;;;;;;44.97;12.60;;;28.50;74.90;;;;;;5059655;28;20033;-66
2023/06/18 08:27:12;;;;;;;14.25;7.90;;;28.80;80.70;;;;;;5060029;28;20500;-65
2023/06/18 08:29:37;;;;;;;;;;;28.70;83.30;;;;;;5058383;28;20029;-66
2023/06/18 08:32:06;;;;;;;25.95;9.50;;;28.10;89.50;;;;;;5062188;28;19908;-67
2023/06/18 08:34:32;;;;;;;15.73;6.88;;;27.80;78.40;;;;;;5037643;28;20514;-69
2023/06/18 08:36:58;;;;;;;14.40;8.23;;;27.60;84.70;;;;;;5061328;28;20106;-66
2023/06/18 08:39:24;;;;;;;;;;;27.40;82.50;;;;;;5057659;28;20131;-67
2023/06/18 08:41:49;;;;;;;14.27;7.07;;;27.10;84.70;;;;;;5062375;28;19995;-65
2023/06/18 08:44:15;;;;;;;201.75;47.22;;;27.30;83.80;;;;;;5059287;28;20476;-67
2023/06/18 08:46:43;;;;;;;408.85;91.45;;;27.40;90.60;;;;;;5058882;28;20078;-68
2023/06/18 08:49:10;;;;;;;250.50;60.72;;;27.40;90.00;;;;;;5059361;28;20459;-70
2023/06/18 08:51:38;;;;;;;236.80;61.72;;;27.30;80.60;;;;;;5060861;28;20048;-69
2023/06/18 08:54:17;;;;;;;195.50;51.03;;;27.50;87.80;;;;;;5054836;28;20427;-69
2023/06/18 08:56:44;;;;;;;153.65;40.50;;;27.80;82.60;;;;;;5055135;28;20118;-69
2023/06/18 08:59:11;;;;;;;90.57;26.85;;;27.90;78.60;;;;;;5058762;28;20039;-69
2023/06/18 09:01:38;;;;;;;110.78;30.13;;;27.60;77.50;;;;;;5060116;28;20029;-70
2023/06/18 09:04:05;;;;;;;102.85;30.77;;;27.30;80.80;;;;;;5061694;28;20035;-70
2023/06/18 09:06:32;;;;;;;70.72;24.48;;;27.20;79.50;;;;;;5061043;28;20043;-69
2023/06/18 09:09:00;;;;;;;35.97;12.15;;;27.20;80.50;;;;;;5029152;28;20048;-70
2023/06/18 09:11:26;;;;;;;22.83;8.85;;;26.90;76.10;;;;;;5041535;28;20033;-70
2023/06/18 09:13:52;;;;;;;14.02;8.15;;;26.60;75.70;;;;;;5060747;28;20059;-70
2023/06/18 09:16:17;;;;;;;32.75;14.70;;;26.70;76.80;;;;;;5057721;28;20760;-70
2023/06/18 09:18:43;;;;;;;30.88;11.60;;;27.20;76.10;;;;;;5065330;28;20028;-70
2023/06/18 09:21:10;;;;;;;15.60;8.65;;;27.10;74.90;;;;;;5061776;28;20028;-70
2023/06/18 09:23:35;;;;;;;12.23;7.85;;;26.40;76.70;;;;;;5061357;28;20104;-69
2023/06/18 09:26:02;;;;;;;15.32;7.53;;;26.00;75.90;;;;;;5058526;28;20575;-69
2023/06/18 09:28:28;;;;;;;13.38;6.07;;;25.40;84.00;;;;;;5060490;28;20075;-69
2023/06/18 09:31:03;;;;;;;8.30;6.90;;;25.30;86.30;;;;;;5063022;28;20416;-68
2023/06/18 09:33:30;;;;;;;11.55;7.88;;;25.40;90.30;;;;;;5058447;28;20078;-69
2023/06/18 09:36:07;;;;;;;10.13;7.30;;;25.10;84.90;;;;;;5062300;28;20047;-71
2023/06/18 09:38:38;;;;;;;9.43;7.00;;;24.90;89.80;;;;;;5061447;28;20033;-69
2023/06/18 09:41:11;;;;;;;9.90;6.60;;;24.90;88.60;;;;;;5065417;28;20529;-68
2023/06/18 09:43:39;;;;;;;13.20;7.07;;;24.70;86.40;;;;;;5063069;28;20021;-69
2023/06/18 09:46:07;;;;;;;9.98;8.65;;;25.00;90.20;;;;;;5060259;28;20029;-69
2023/06/18 09:48:36;;;;;;;9.13;6.95;;;25.30;92.40;;;;;;5056617;28;20032;-69
2023/06/18 09:51:03;;;;;;;9.93;6.72;;;25.40;91.30;;;;;;5061078;28;20400;-70
2023/06/18 09:53:29;;;;;;;11.10;6.82;;;25.50;90.30;;;;;;5062622;28;20029;-71
2023/06/18 09:56:14;;;;;;;8.02;6.60;;;25.70;89.40;;;;;;5039699;28;20127;-70
2023/06/18 09:58:50;;;;;;;9.43;7.90;;;25.50;87.50;;;;;;5059994;28;20158;-69
2023/06/18 10:01:18;;;;;;;10.48;6.78;;;25.50;85.90;;;;;;5057551;28;20033;-70
2023/06/18 10:03:45;;;;;;;13.95;6.88;;;25.90;88.40;;;;;;5064516;28;20025;-69
2023/06/18 10:06:31;;;;;;;7.90;6.43;;;26.90;82.60;;;;;;5044557;28;20146;-69
2023/06/18 10:08:58;;;;;;;10.98;7.55;;;28.20;78.30;;;;;;5062231;28;20040;-70
2023/06/18 10:11:25;;;;;;;8.88;6.70;;;27.50;77.40;;;;;;5061975;28;20503;-69
2023/06/18 10:13:56;;;;;;;11.75;8.45;;;27.00;82.10;;;;;;5061861;28;20671;-69
2023/06/18 10:16:24;;;;;;;8.05;6.55;;;26.70;82.00;;;;;;5061268;28;20216;-70
2023/06/18 10:19:05;;;;;;;10.68;7.63;;;25.90;80.60;;;;;;5063242;28;20036;-70
2023/06/18 10:21:33;;;;;;;10.57;7.72;;;26.10;91.00;;;;;;5063425;28;20036;-68
2023/06/18 10:24:17;;;;;;;11.73;7.50;;;26.60;88.20;;;;;;5063520;28;20033;-71
2023/06/18 10:26:43;;;;;;;9.88;6.70;;;26.70;80.50;;;;;;5061630;28;20049;-69
2023/06/18 10:29:12;;;;;;;13.88;6.93;;;25.90;78.00;;;;;;5057043;28;20036;-69
2023/06/18 10:31:38;;;;;;;9.95;7.90;;;25.60;85.70;;;;;;5062961;28;21133;-70
2023/06/18 10:34:04;;;;;;;;;;;25.10;90.50;;;;;;5061714;28;20093;-69
2023/06/18 10:36:30;;;;;;;13.23;9.27;;;25.40;89.00;;;;;;5057662;28;19913;-69
2023/06/18 10:38:59;;;;;;;12.25;6.80;;;25.60;85.00;;;;;;5060594;28;20064;-69
2023/06/18 10:41:27;;;;;;;11.27;9.13;;;25.90;89.70;;;;;;5057932;28;20033;-69
2023/06/18 10:43:54;;;;;;;9.02;6.88;;;26.30;91.10;;;;;;5057850;28;20036;-69
2023/06/18 10:46:22;;;;;;;10.30;7.95;;;26.30;90.30;;;;;;5059419;28;20032;-69
2023/06/18 10:49:14;;;;;;;11.57;7.88;;;26.10;83.00;;;;;;5047812;28;20408;-69
2023/06/18 10:51:40;;;;;;;11.20;7.93;;;25.80;86.90;;;;;;5062656;28;20028;-69
2023/06/18 10:54:24;;;;;;;8.85;7.95;;;25.80;91.00;;;;;;5046232;28;20040;-69
2023/06/18 10:56:51;;;;;;;12.15;7.43;;;25.80;91.30;;;;;;5060580;28;20504;-69
2023/06/18 10:59:35;;;;;;;16.73;7.32;;;25.50;87.90;;;;;;5058790;28;20082;-67
2023/06/18 11:02:01;;;;;;;15.40;8.07;;;25.10;86.70;;;;;;5055725;28;20063;-69
2023/06/18 11:04:32;;;;;;;9.20;7.05;;;24.90;91.40;;;;;;5058351;28;20036;-66
2023/06/18 11:07:12;;;;;;;12.32;7.25;;;24.90;91.00;;;;;;5061740;28;20023;-69
2023/06/18 11:09:53;;;;;;;9.75;7.38;;;25.00;94.40;;;;;;5055076;28;20107;-69
2023/06/18 11:12:30;;;;;;;18.65;9.13;;;25.10;90.80;;;;;;5039409;28;20031;-69
2023/06/18 11:15:16;;;;;;;11.73;7.57;;;25.10;94.70;;;;;;5060100;28;20040;-68
2023/06/18 11:17:43;;;;;;;17.27;7.80;;;25.30;96.20;;;;;;5058874;28;20033;-69
2023/06/18 11:20:11;;;;;;;13.52;7.68;;;25.20;94.80;;;;;;5060010;28;20029;-68
2023/06/18 11:22:39;;;;;;;11.30;7.97;;;25.20;95.30;;;;;;5057674;28;20025;-68
2023/06/18 11:25:07;;;;;;;11.23;7.47;;;25.30;97.70;;;;;;5056648;28;20029;-69
2023/06/18 11:27:33;;;;;;;9.35;7.43;;;24.80;95.70;;;;;;5060599;28;20028;-69
2023/06/18 11:29:59;;;;;;;9.77;8.18;;;24.80;96.80;;;;;;5065292;28;20086;-68
2023/06/18 11:32:26;;;;;;;13.48;7.82;;;24.50;95.60;;;;;;5060293;28;20032;-70
2023/06/18 11:34:53;;;;;;;16.15;10.57;;;24.50;96.50;;;;;;5060270;28;20041;-69
2023/06/18 11:37:19;;;;;;;9.45;8.10;;;24.60;96.30;;;;;;5061145;28;20029;-69
2023/06/18 11:39:44;;;;;;;12.18;9.95;;;24.70;95.10;;;;;;5060787;28;20376;-68
2023/06/18 11:42:21;;;;;;;11.55;8.52;;;24.80;95.80;;;;;;5064992;28;20539;-68
2023/06/18 11:44:56;;;;;;;10.98;8.02;;;24.70;95.30;;;;;;5060450;28;20035;-69
2023/06/18 11:47:22;;;;;;;11.00;8.20;;;24.60;95.00;;;;;;5063749;28;20095;-68
2023/06/18 11:49:51;;;;;;;11.90;8.80;;;24.70;93.60;;;;;;5059566;28;20030;-69
2023/06/18 11:52:19;;;;;;;10.43;7.47;;;25.00;93.00;;;;;;5059787;28;20025;-66
2023/06/18 11:54:45;;;;;;;16.35;7.90;;;25.10;92.60;;;;;;5061950;28;20514;-69
2023/06/18 11:57:12;;;;;;;13.75;7.82;;;25.60;92.80;;;;;;5058815;28;20021;-70
2023/06/18 11:59:42;;;;;;;12.35;9.27;;;26.20;88.90;;;;;;5055714;28;20032;-69
2023/06/18 12:02:18;;;;;;;11.63;8.13;;;27.10;90.70;;;;;;5058672;28;20028;-67
2023/06/18 12:04:44;;;;;;;8.90;7.93;;;27.50;84.00;;;;;;5060601;28;20020;-69
2023/06/18 12:07:21;;;;;;;13.20;8.60;;;27.30;85.10;;;;;;5062041;28;20037;-70
2023/06/18 12:09:47;;;;;;;;;;;27.60;83.70;;;;;;5058481;28;20024;-69
2023/06/18 12:12:34;;;;;;;9.65;7.28;;;27.60;82.10;;;;;;5058966;28;19919;-68
2023/06/18 12:15:00;;;;;;;9.60;7.70;;;27.40;90.00;;;;;;5061777;28;20048;-68
2023/06/18 12:17:31;;;;;;;10.70;7.82;;;27.40;88.40;;;;;;5041957;28;20047;-69
2023/06/18 12:20:04;;;;;;;8.93;7.60;;;26.80;90.40;;;;;;5056269;28;20497;-66
2023/06/18 12:22:29;;;;;;;12.25;8.00;;;26.90;86.60;;;;;;5055860;28;20059;-67
2023/06/18 12:24:55;;;;;;;10.10;7.82;;;27.10;89.30;;;;;;5056917;28;20066;-67
2023/06/18 12:27:22;;;;;;;10.25;8.00;;;27.30;91.80;;;;;;5059150;28;20037;-67
2023/06/18 12:29:47;;;;;;;;;;;27.60;89.70;;;;;;5060387;28;20082;-67
2023/06/18 12:32:13;;;;;;;8.75;7.45;;;27.60;92.00;;;;;;5058381;28;20333;-68
2023/06/18 12:34:40;;;;;;;14.23;8.07;;;27.60;91.20;;;;;;5058643;28;20111;-68
2023/06/18 12:37:07;;;;;;;11.20;7.20;;;27.60;91.20;;;;;;5064167;28;20044;-67
2023/06/18 12:39:34;;;;;;;8.77;7.88;;;28.20;83.50;;;;;;5058113;28;20029;-66
2023/06/18 12:41:59;;;;;;;;;;;28.40;86.00;;;;;;5048696;28;20066;-68
2023/06/18 12:44:27;;;;;;;14.50;6.80;;;28.80;80.50;;;;;;5044661;28;20279;-70